sensor_id;sensor_type;location;lat;lon;timestamp;temperature;humidity
49236;DHT22;35067;48.134;8.378;2023-05-02T00:00:54;7.70;99.90
49236;DHT22;35067;48.134;8.378;2023-05-02T00:01:55;7.80;99.90
49236;DHT22;35067;48.134;8.378;2023-05-02T00:02:57;7.80;99.90
49236;DHT22;35067;48.134;8.378;2023-05-02T00:03:58;7.80;99.90
49236;DHT22;35067;48.134;8.378;2023-05-02T00:04:58;7.80;99.90
49236;DHT22;35067;48.134;8.378;2023-05-02T00:05:59;7.80;99.90
49236;DHT22;35067;48.134;8.378;2023-05-02T00:07:03;7.80;99.90
49236;DHT22;35067;48.134;8.378;2023-05-02T00:08:04;7.80;99.90
49236;DHT22;35067;48.134;8.378;2023-05-02T00:09:05;7.80;99.90
49236;DHT22;35067;48.134;8.378;2023-05-02T00:10:06;7.90;99.90
49236;DHT22;35067;48.134;8.378;2023-05-02T00:11:08;7.80;99.90
49236;DHT22;35067;48.134;8.378;2023-05-02T00:12:08;7.80;99.90
49236;DHT22;35067;48.134;8.378;2023-05-02T00:13:09;7.80;99.90
49236;DHT22;35067;48.134;8.378;2023-05-02T00:14:10;7.80;99.90
49236;DHT22;35067;48.134;8.378;2023-05-02T00:15:12;7.70;99.90
49236;DHT22;35067;48.134;8.378;2023-05-02T00:16:14;7.70;99.90
49236;DHT22;35067;48.134;8.378;2023-05-02T00:17:19;7.70;99.90
49236;DHT22;35067;48.134;8.378;2023-05-02T00:18:23;7.70;99.90
49236;DHT22;35067;48.134;8.378;2023-05-02T00:19:26;7.70;99.90
49236;DHT22;35067;48.134;8.378;2023-05-02T00:20:27;7.70;99.90
49236;DHT22;35067;48.134;8.378;2023-05-02T00:21:30;7.60;99.90
49236;DHT22;35067;48.134;8.378;2023-05-02T00:22:32;7.50;99.90
49236;DHT22;35067;48.134;8.378;2023-05-02T00:23:33;7.50;99.90
49236;DHT22;35067;48.134;8.378;2023-05-02T00:24:34;7.60;99.90
49236;DHT22;35067;48.134;8.378;2023-05-02T00:25:36;7.50;99.90
49236;DHT22;35067;48.134;8.378;2023-05-02T00:26:36;7.60;99.90
49236;DHT22;35067;48.134;8.378;2023-05-02T00:27:37;7.50;99.90
49236;DHT22;35067;48.134;8.378;2023-05-02T00:28:38;7.50;99.90
49236;DHT22;35067;48.134;8.378;2023-05-02T00:29:39;7.60;99.90
49236;DHT22;35067;48.134;8.378;2023-05-02T00:30:44;7.60;99.90
49236;DHT22;35067;48.134;8.378;2023-05-02T00:31:45;7.50;99.90
49236;DHT22;35067;48.134;8.378;2023-05-02T00:32:47;7.50;99.90
49236;DHT22;35067;48.134;8.378;2023-05-02T00:33:47;7.50;99.90
49236;DHT22;35067;48.134;8.378;2023-05-02T00:34:48;7.50;99.90
49236;DHT22;35067;48.134;8.378;2023-05-02T00:35:49;7.60;99.90
49236;DHT22;35067;48.134;8.378;2023-05-02T00:36:50;7.50;99.90
49236;DHT22;35067;48.134;8.378;2023-05-02T00:37:52;7.60;99.90
49236;DHT22;35067;48.134;8.378;2023-05-02T00:38:54;7.50;99.90
49236;DHT22;35067;48.134;8.378;2023-05-02T00:39:55;7.40;99.90
49236;DHT22;35067;48.134;8.378;2023-05-02T00:40:56;7.50;99.90
49236;DHT22;35067;48.134;8.378;2023-05-02T00:41:58;7.30;99.90
49236;DHT22;35067;48.134;8.378;2023-05-02T00:43:00;7.30;99.90
49236;DHT22;35067;48.134;8.378;2023-05-02T00:44:02;7.30;99.90
49236;DHT22;35067;48.134;8.378;2023-05-02T00:45:03;7.30;99.90
49236;DHT22;35067;48.134;8.378;2023-05-02T00:46:05;7.30;99.90
49236;DHT22;35067;48.134;8.378;2023-05-02T00:47:07;7.30;99.90
49236;DHT22;35067;48.134;8.378;2023-05-02T00:48:09;7.30;99.90
49236;DHT22;35067;48.134;8.378;2023-05-02T00:49:10;7.30;99.90
49236;DHT22;35067;48.134;8.378;2023-05-02T00:50:10;7.40;99.90
49236;DHT22;35067;48.134;8.378;2023-05-02T00:51:12;7.40;99.90
49236;DHT22;35067;48.134;8.378;2023-05-02T00:52:13;7.30;99.90
49236;DHT22;35067;48.134;8.378;2023-05-02T00:53:14;7.40;99.90
49236;DHT22;35067;48.134;8.378;2023-05-02T00:54:16;7.30;99.90
49236;DHT22;35067;48.134;8.378;2023-05-02T00:55:18;7.20;99.90
49236;DHT22;35067;48.134;8.378;2023-05-02T00:56:19;7.40;99.90
49236;DHT22;35067;48.134;8.378;2023-05-02T00:57:20;7.50;99.90
49236;DHT22;35067;48.134;8.378;2023-05-02T00:58:22;7.40;99.90
49236;DHT22;35067;48.134;8.378;2023-05-02T00:59:22;7.40;99.90
49236;DHT22;35067;48.134;8.378;2023-05-02T01:00:29;7.40;99.90
49236;DHT22;35067;48.134;8.378;2023-05-02T01:03:16;7.40;99.90
49236;DHT22;35067;48.134;8.378;2023-05-02T01:13:08;7.00;99.90
49236;DHT22;35067;48.134;8.378;2023-05-02T01:14:10;6.90;99.90
49236;DHT22;35067;48.134;8.378;2023-05-02T01:15:17;7.00;99.90
49236;DHT22;35067;48.134;8.378;2023-05-02T01:16:20;7.00;99.90
49236;DHT22;35067;48.134;8.378;2023-05-02T01:17:27;7.10;99.90
49236;DHT22;35067;48.134;8.378;2023-05-02T01:18:35;7.10;99.90
49236;DHT22;35067;48.134;8.378;2023-05-02T01:19:43;7.20;99.90
49236;DHT22;35067;48.134;8.378;2023-05-02T01:20:56;7.20;99.90
49236;DHT22;35067;48.134;8.378;2023-05-02T01:22:04;7.10;99.90
49236;DHT22;35067;48.134;8.378;2023-05-02T01:23:30;7.20;99.90
49236;DHT22;35067;48.134;8.378;2023-05-02T01:27:39;7.00;99.90
49236;DHT22;35067;48.134;8.378;2023-05-02T01:29:06;7.00;99.90
49236;DHT22;35067;48.134;8.378;2023-05-02T01:30:10;7.10;99.90
49236;DHT22;35067;48.134;8.378;2023-05-02T01:31:12;7.10;99.90
49236;DHT22;35067;48.134;8.378;2023-05-02T01:32:16;7.00;99.90
49236;DHT22;35067;48.134;8.378;2023-05-02T01:33:21;7.10;99.90
49236;DHT22;35067;48.134;8.378;2023-05-02T01:34:25;7.00;99.90
49236;DHT22;35067;48.134;8.378;2023-05-02T01:35:27;7.00;99.90
49236;DHT22;35067;48.134;8.378;2023-05-02T01:36:30;7.10;99.90
49236;DHT22;35067;48.134;8.378;2023-05-02T01:37:32;7.00;99.90
49236;DHT22;35067;48.134;8.378;2023-05-02T01:38:34;7.00;99.90
49236;DHT22;35067;48.134;8.378;2023-05-02T01:39:35;7.00;99.90
49236;DHT22;35067;48.134;8.378;2023-05-02T01:40:38;7.10;99.90
49236;DHT22;35067;48.134;8.378;2023-05-02T01:41:39;7.10;99.90
49236;DHT22;35067;48.134;8.378;2023-05-02T01:42:41;7.10;99.90
49236;DHT22;35067;48.134;8.378;2023-05-02T01:43:43;7.00;99.90
49236;DHT22;35067;48.134;8.378;2023-05-02T01:44:46;7.00;99.90
49236;DHT22;35067;48.134;8.378;2023-05-02T01:45:49;7.10;99.90
49236;DHT22;35067;48.134;8.378;2023-05-02T01:46:52;7.10;99.90
49236;DHT22;35067;48.134;8.378;2023-05-02T01:47:54;7.20;99.90
49236;DHT22;35067;48.134;8.378;2023-05-02T01:48:56;7.20;99.90
49236;DHT22;35067;48.134;8.378;2023-05-02T01:49:59;7.20;99.90
49236;DHT22;35067;48.134;8.378;2023-05-02T01:51:03;7.20;99.90
49236;DHT22;35067;48.134;8.378;2023-05-02T01:52:10;7.20;99.90
49236;DHT22;35067;48.134;8.378;2023-05-02T01:53:13;7.30;99.90
49236;DHT22;35067;48.134;8.378;2023-05-02T01:54:16;7.10;99.90
49236;DHT22;35067;48.134;8.378;2023-05-02T01:55:18;7.20;99.90
49236;DHT22;35067;48.134;8.378;2023-05-02T01:56:22;7.20;99.90
49236;DHT22;35067;48.134;8.378;2023-05-02T01:57:24;7.20;99.90
49236;DHT22;35067;48.134;8.378;2023-05-02T01:58:28;7.20;99.90
49236;DHT22;35067;48.134;8.378;2023-05-02T01:59:32;7.20;99.90
49236;DHT22;35067;48.134;8.378;2023-05-02T02:00:33;7.10;99.90
49236;DHT22;35067;48.134;8.378;2023-05-02T02:01:37;7.10;99.90
49236;DHT22;35067;48.134;8.378;2023-05-02T02:02:41;7.00;99.90
49236;DHT22;35067;48.134;8.378;2023-05-02T02:03:44;7.10;99.90
49236;DHT22;35067;48.134;8.378;2023-05-02T02:04:46;7.10;99.90
49236;DHT22;35067;48.134;8.378;2023-05-02T02:05:48;7.10;99.90
49236;DHT22;35067;48.134;8.378;2023-05-02T02:07:00;7.10;99.90
49236;DHT22;35067;48.134;8.378;2023-05-02T02:08:02;7.10;99.90
49236;DHT22;35067;48.134;8.378;2023-05-02T02:09:03;7.10;99.90
49236;DHT22;35067;48.134;8.378;2023-05-02T02:10:04;7.10;99.90
49236;DHT22;35067;48.134;8.378;2023-05-02T02:11:10;7.10;99.90
49236;DHT22;35067;48.134;8.378;2023-05-02T02:12:37;7.20;99.90
49236;DHT22;35067;48.134;8.378;2023-05-02T02:13:44;7.00;99.90
49236;DHT22;35067;48.134;8.378;2023-05-02T02:16:30;7.10;99.90
49236;DHT22;35067;48.134;8.378;2023-05-02T02:17:36;7.20;99.90
49236;DHT22;35067;48.134;8.378;2023-05-02T02:18:41;7.50;99.90
49236;DHT22;35067;48.134;8.378;2023-05-02T02:19:52;7.10;99.90
49236;DHT22;35067;48.134;8.378;2023-05-02T02:20:54;7.10;99.90
49236;DHT22;35067;48.134;8.378;2023-05-02T02:21:59;7.10;99.90
49236;DHT22;35067;48.134;8.378;2023-05-02T02:23:05;7.10;99.90
49236;DHT22;35067;48.134;8.378;2023-05-02T02:24:09;7.10;99.90
49236;DHT22;35067;48.134;8.378;2023-05-02T02:25:13;7.10;99.90
49236;DHT22;35067;48.134;8.378;2023-05-02T02:26:16;7.20;99.90
49236;DHT22;35067;48.134;8.378;2023-05-02T02:27:19;7.20;99.90
49236;DHT22;35067;48.134;8.378;2023-05-02T02:28:20;7.10;99.90
49236;DHT22;35067;48.134;8.378;2023-05-02T02:29:21;7.10;99.90
49236;DHT22;35067;48.134;8.378;2023-05-02T02:30:22;7.10;99.90
49236;DHT22;35067;48.134;8.378;2023-05-02T02:31:29;7.20;99.90
49236;DHT22;35067;48.134;8.378;2023-05-02T02:32:35;7.10;99.90
49236;DHT22;35067;48.134;8.378;2023-05-02T02:33:36;7.10;99.90
49236;DHT22;35067;48.134;8.378;2023-05-02T02:34:39;7.10;99.90
49236;DHT22;35067;48.134;8.378;2023-05-02T02:35:43;7.10;99.90
49236;DHT22;35067;48.134;8.378;2023-05-02T02:36:59;7.10;99.90
49236;DHT22;35067;48.134;8.378;2023-05-02T02:38:19;7.00;99.90
49236;DHT22;35067;48.134;8.378;2023-05-02T02:41:24;7.10;99.90
49236;DHT22;35067;48.134;8.378;2023-05-02T02:42:38;7.00;99.90
49236;DHT22;35067;48.134;8.378;2023-05-02T02:44:24;7.10;99.90
49236;DHT22;35067;48.134;8.378;2023-05-02T02:45:37;7.10;99.90
49236;DHT22;35067;48.134;8.378;2023-05-02T02:46:51;7.00;99.90
49236;DHT22;35067;48.134;8.378;2023-05-02T02:51:02;6.80;99.90
49236;DHT22;35067;48.134;8.378;2023-05-02T02:52:20;6.80;99.90
49236;DHT22;35067;48.134;8.378;2023-05-02T02:53:59;6.80;99.90
49236;DHT22;35067;48.134;8.378;2023-05-02T02:55:11;6.70;99.90
49236;DHT22;35067;48.134;8.378;2023-05-02T02:56:17;6.60;99.90
49236;DHT22;35067;48.134;8.378;2023-05-02T02:57:38;6.60;99.90
49236;DHT22;35067;48.134;8.378;2023-05-02T02:59:04;6.70;99.90
49236;DHT22;35067;48.134;8.378;2023-05-02T03:00:21;6.60;99.90
49236;DHT22;35067;48.134;8.378;2023-05-02T03:01:27;6.60;99.90
49236;DHT22;35067;48.134;8.378;2023-05-02T03:02:31;6.60;99.90
49236;DHT22;35067;48.134;8.378;2023-05-02T03:03:33;6.70;99.90
49236;DHT22;35067;48.134;8.378;2023-05-02T03:04:40;6.70;99.90
49236;DHT22;35067;48.134;8.378;2023-05-02T03:05:43;6.80;99.90
49236;DHT22;35067;48.134;8.378;2023-05-02T03:06:47;6.80;99.90
49236;DHT22;35067;48.134;8.378;2023-05-02T03:07:49;6.70;99.90
49236;DHT22;35067;48.134;8.378;2023-05-02T03:08:50;6.70;99.90
49236;DHT22;35067;48.134;8.378;2023-05-02T03:09:51;6.70;99.90
49236;DHT22;35067;48.134;8.378;2023-05-02T03:10:53;6.60;99.90
49236;DHT22;35067;48.134;8.378;2023-05-02T03:11:55;6.60;99.90
49236;DHT22;35067;48.134;8.378;2023-05-02T03:12:56;6.60;99.90
49236;DHT22;35067;48.134;8.378;2023-05-02T03:13:57;6.50;99.90
49236;DHT22;35067;48.134;8.378;2023-05-02T03:16:58;6.50;99.90
49236;DHT22;35067;48.134;8.378;2023-05-02T03:18:01;6.40;99.90
49236;DHT22;35067;48.134;8.378;2023-05-02T03:19:03;6.30;99.90
49236;DHT22;35067;48.134;8.378;2023-05-02T03:20:05;6.30;99.90
49236;DHT22;35067;48.134;8.378;2023-05-02T03:21:07;6.30;99.90
49236;DHT22;35067;48.134;8.378;2023-05-02T03:22:07;6.20;99.90
49236;DHT22;35067;48.134;8.378;2023-05-02T03:23:08;6.20;99.90
49236;DHT22;35067;48.134;8.378;2023-05-02T03:24:09;6.20;99.90
49236;DHT22;35067;48.134;8.378;2023-05-02T03:25:10;6.20;99.90
49236;DHT22;35067;48.134;8.378;2023-05-02T03:26:12;6.20;99.90
49236;DHT22;35067;48.134;8.378;2023-05-02T03:27:13;6.20;99.90
49236;DHT22;35067;48.134;8.378;2023-05-02T03:28:13;6.10;99.90
49236;DHT22;35067;48.134;8.378;2023-05-02T03:29:15;6.20;99.90
49236;DHT22;35067;48.134;8.378;2023-05-02T03:30:16;6.20;99.90
49236;DHT22;35067;48.134;8.378;2023-05-02T03:31:16;6.10;99.90
49236;DHT22;35067;48.134;8.378;2023-05-02T03:32:17;6.20;99.90
49236;DHT22;35067;48.134;8.378;2023-05-02T03:33:20;6.20;99.90
49236;DHT22;35067;48.134;8.378;2023-05-02T03:34:20;6.20;99.90
49236;DHT22;35067;48.134;8.378;2023-05-02T03:35:21;6.20;99.90
49236;DHT22;35067;48.134;8.378;2023-05-02T03:36:23;6.10;99.90
49236;DHT22;35067;48.134;8.378;2023-05-02T03:37:24;6.10;99.90
49236;DHT22;35067;48.134;8.378;2023-05-02T03:38:28;6.00;99.90
49236;DHT22;35067;48.134;8.378;2023-05-02T03:39:29;6.00;99.90
49236;DHT22;35067;48.134;8.378;2023-05-02T03:40:31;6.00;99.90
49236;DHT22;35067;48.134;8.378;2023-05-02T03:41:32;6.10;99.90
49236;DHT22;35067;48.134;8.378;2023-05-02T03:42:34;6.20;99.90
49236;DHT22;35067;48.134;8.378;2023-05-02T03:43:41;6.30;99.90
49236;DHT22;35067;48.134;8.378;2023-05-02T03:44:43;6.30;99.90
49236;DHT22;35067;48.134;8.378;2023-05-02T03:45:44;6.20;99.90
49236;DHT22;35067;48.134;8.378;2023-05-02T03:46:46;6.20;99.90
49236;DHT22;35067;48.134;8.378;2023-05-02T03:47:47;6.30;99.90
49236;DHT22;35067;48.134;8.378;2023-05-02T03:48:49;6.30;99.90
49236;DHT22;35067;48.134;8.378;2023-05-02T03:49:51;6.30;99.90
49236;DHT22;35067;48.134;8.378;2023-05-02T03:50:53;6.40;99.90
49236;DHT22;35067;48.134;8.378;2023-05-02T03:51:54;6.50;99.90
49236;DHT22;35067;48.134;8.378;2023-05-02T03:52:56;6.50;99.90
49236;DHT22;35067;48.134;8.378;2023-05-02T03:53:59;6.60;99.90
49236;DHT22;35067;48.134;8.378;2023-05-02T03:55:02;6.60;99.90
49236;DHT22;35067;48.134;8.378;2023-05-02T03:56:05;6.60;99.90
49236;DHT22;35067;48.134;8.378;2023-05-02T03:57:07;6.60;99.90
49236;DHT22;35067;48.134;8.378;2023-05-02T03:58:12;6.70;99.90
49236;DHT22;35067;48.134;8.378;2023-05-02T03:59:14;6.60;99.90
49236;DHT22;35067;48.134;8.378;2023-05-02T04:00:14;6.60;99.90
49236;DHT22;35067;48.134;8.378;2023-05-02T04:01:16;6.60;99.90
49236;DHT22;35067;48.134;8.378;2023-05-02T04:02:17;6.60;99.90
49236;DHT22;35067;48.134;8.378;2023-05-02T04:03:20;6.60;99.90
49236;DHT22;35067;48.134;8.378;2023-05-02T04:04:24;6.60;99.90
49236;DHT22;35067;48.134;8.378;2023-05-02T04:05:25;6.60;99.90
49236;DHT22;35067;48.134;8.378;2023-05-02T04:06:26;6.70;99.90
49236;DHT22;35067;48.134;8.378;2023-05-02T04:07:27;6.70;99.90
49236;DHT22;35067;48.134;8.378;2023-05-02T04:08:27;6.60;99.90
49236;DHT22;35067;48.134;8.378;2023-05-02T04:09:28;6.70;99.90
49236;DHT22;35067;48.134;8.378;2023-05-02T04:10:29;6.70;99.90
49236;DHT22;35067;48.134;8.378;2023-05-02T04:11:30;6.70;99.90
49236;DHT22;35067;48.134;8.378;2023-05-02T04:12:31;6.70;99.90
49236;DHT22;35067;48.134;8.378;2023-05-02T04:13:33;6.70;99.90
49236;DHT22;35067;48.134;8.378;2023-05-02T04:14:36;6.70;99.90
49236;DHT22;35067;48.134;8.378;2023-05-02T04:15:39;6.70;99.90
49236;DHT22;35067;48.134;8.378;2023-05-02T04:16:40;6.80;99.90
49236;DHT22;35067;48.134;8.378;2023-05-02T04:17:40;6.80;99.90
49236;DHT22;35067;48.134;8.378;2023-05-02T04:18:41;6.90;99.90
49236;DHT22;35067;48.134;8.378;2023-05-02T04:19:42;7.00;99.90
49236;DHT22;35067;48.134;8.378;2023-05-02T04:20:43;7.00;99.90
49236;DHT22;35067;48.134;8.378;2023-05-02T04:21:49;7.00;99.90
49236;DHT22;35067;48.134;8.378;2023-05-02T04:22:51;7.10;99.90
49236;DHT22;35067;48.134;8.378;2023-05-02T04:23:53;7.20;99.90
49236;DHT22;35067;48.134;8.378;2023-05-02T04:24:54;7.20;99.90
49236;DHT22;35067;48.134;8.378;2023-05-02T04:25:56;7.20;99.90
49236;DHT22;35067;48.134;8.378;2023-05-02T04:26:57;7.30;99.90
49236;DHT22;35067;48.134;8.378;2023-05-02T04:27:59;7.30;99.90
49236;DHT22;35067;48.134;8.378;2023-05-02T04:29:01;7.30;99.90
49236;DHT22;35067;48.134;8.378;2023-05-02T04:30:04;7.30;99.90
49236;DHT22;35067;48.134;8.378;2023-05-02T04:31:07;7.40;99.90
49236;DHT22;35067;48.134;8.378;2023-05-02T04:32:08;7.40;99.90
49236;DHT22;35067;48.134;8.378;2023-05-02T04:33:09;7.50;99.90
49236;DHT22;35067;48.134;8.378;2023-05-02T04:34:11;7.50;99.90
49236;DHT22;35067;48.134;8.378;2023-05-02T04:35:11;7.50;99.90
49236;DHT22;35067;48.134;8.378;2023-05-02T04:36:14;7.50;99.90
49236;DHT22;35067;48.134;8.378;2023-05-02T04:37:16;7.40;99.90
49236;DHT22;35067;48.134;8.378;2023-05-02T04:38:17;7.40;99.90
49236;DHT22;35067;48.134;8.378;2023-05-02T04:39:18;7.40;99.90
49236;DHT22;35067;48.134;8.378;2023-05-02T04:40:19;7.60;99.90
49236;DHT22;35067;48.134;8.378;2023-05-02T04:41:20;7.60;99.90
49236;DHT22;35067;48.134;8.378;2023-05-02T04:42:22;7.60;99.90
49236;DHT22;35067;48.134;8.378;2023-05-02T04:43:23;7.70;99.90
49236;DHT22;35067;48.134;8.378;2023-05-02T04:44:24;7.80;99.90
49236;DHT22;35067;48.134;8.378;2023-05-02T04:45:25;7.70;99.90
49236;DHT22;35067;48.134;8.378;2023-05-02T04:46:26;7.80;99.90
49236;DHT22;35067;48.134;8.378;2023-05-02T04:47:27;7.80;99.90
49236;DHT22;35067;48.134;8.378;2023-05-02T04:48:29;7.90;99.90
49236;DHT22;35067;48.134;8.378;2023-05-02T04:49:30;7.90;99.90
49236;DHT22;35067;48.134;8.378;2023-05-02T04:50:35;7.90;99.90
49236;DHT22;35067;48.134;8.378;2023-05-02T04:51:36;7.90;99.90
49236;DHT22;35067;48.134;8.378;2023-05-02T04:52:39;7.90;99.90
49236;DHT22;35067;48.134;8.378;2023-05-02T04:53:41;7.90;99.90
49236;DHT22;35067;48.134;8.378;2023-05-02T04:54:43;7.90;99.90
49236;DHT22;35067;48.134;8.378;2023-05-02T04:55:44;7.90;99.90
49236;DHT22;35067;48.134;8.378;2023-05-02T04:56:45;7.80;99.90
49236;DHT22;35067;48.134;8.378;2023-05-02T04:57:46;7.90;99.90
49236;DHT22;35067;48.134;8.378;2023-05-02T04:58:48;7.90;99.90
49236;DHT22;35067;48.134;8.378;2023-05-02T04:59:49;7.80;99.90
49236;DHT22;35067;48.134;8.378;2023-05-02T05:00:51;7.70;99.90
49236;DHT22;35067;48.134;8.378;2023-05-02T05:01:55;7.80;99.90
49236;DHT22;35067;48.134;8.378;2023-05-02T05:02:56;7.80;99.90
49236;DHT22;35067;48.134;8.378;2023-05-02T05:03:57;7.80;99.90
49236;DHT22;35067;48.134;8.378;2023-05-02T05:05:01;7.70;99.90
49236;DHT22;35067;48.134;8.378;2023-05-02T05:06:01;7.70;99.90
49236;DHT22;35067;48.134;8.378;2023-05-02T05:07:04;7.70;99.90
49236;DHT22;35067;48.134;8.378;2023-05-02T05:08:05;7.80;99.90
49236;DHT22;35067;48.134;8.378;2023-05-02T05:09:07;7.70;99.90
49236;DHT22;35067;48.134;8.378;2023-05-02T05:10:09;7.80;99.90
49236;DHT22;35067;48.134;8.378;2023-05-02T05:11:13;7.80;99.90
49236;DHT22;35067;48.134;8.378;2023-05-02T05:12:15;7.80;99.90
49236;DHT22;35067;48.134;8.378;2023-05-02T05:13:15;7.90;99.90
49236;DHT22;35067;48.134;8.378;2023-05-02T05:14:16;8.00;99.90
49236;DHT22;35067;48.134;8.378;2023-05-02T05:15:17;8.10;99.90
49236;DHT22;35067;48.134;8.378;2023-05-02T05:16:19;8.00;99.90
49236;DHT22;35067;48.134;8.378;2023-05-02T05:17:20;8.00;99.90
49236;DHT22;35067;48.134;8.378;2023-05-02T05:18:22;8.00;99.90
49236;DHT22;35067;48.134;8.378;2023-05-02T05:19:23;8.00;99.90
49236;DHT22;35067;48.134;8.378;2023-05-02T05:20:23;8.00;99.90
49236;DHT22;35067;48.134;8.378;2023-05-02T05:21:24;7.90;99.90
49236;DHT22;35067;48.134;8.378;2023-05-02T05:22:26;7.90;99.90
49236;DHT22;35067;48.134;8.378;2023-05-02T05:23:28;8.00;99.90
49236;DHT22;35067;48.134;8.378;2023-05-02T05:24:29;8.00;99.90
49236;DHT22;35067;48.134;8.378;2023-05-02T05:25:29;8.10;99.90
49236;DHT22;35067;48.134;8.378;2023-05-02T05:26:33;8.00;99.90
49236;DHT22;35067;48.134;8.378;2023-05-02T05:27:35;7.90;99.90
49236;DHT22;35067;48.134;8.378;2023-05-02T05:28:38;8.00;99.90
49236;DHT22;35067;48.134;8.378;2023-05-02T05:29:42;8.00;99.90
49236;DHT22;35067;48.134;8.378;2023-05-02T05:30:43;8.10;99.90
49236;DHT22;35067;48.134;8.378;2023-05-02T05:31:43;8.10;99.90
49236;DHT22;35067;48.134;8.378;2023-05-02T05:32:46;8.10;99.90
49236;DHT22;35067;48.134;8.378;2023-05-02T05:33:46;8.20;99.90
49236;DHT22;35067;48.134;8.378;2023-05-02T05:34:51;8.00;99.90
49236;DHT22;35067;48.134;8.378;2023-05-02T05:35:54;7.90;99.90
49236;DHT22;35067;48.134;8.378;2023-05-02T05:36:54;8.00;99.90
49236;DHT22;35067;48.134;8.378;2023-05-02T05:37:56;7.90;99.90
49236;DHT22;35067;48.134;8.378;2023-05-02T05:38:57;8.00;99.90
49236;DHT22;35067;48.134;8.378;2023-05-02T05:39:57;8.00;99.90
49236;DHT22;35067;48.134;8.378;2023-05-02T05:41:00;8.00;99.90
49236;DHT22;35067;48.134;8.378;2023-05-02T05:42:01;8.00;99.90
49236;DHT22;35067;48.134;8.378;2023-05-02T05:43:02;8.10;99.90
49236;DHT22;35067;48.134;8.378;2023-05-02T05:44:03;8.20;99.90
49236;DHT22;35067;48.134;8.378;2023-05-02T05:45:05;8.20;99.90
49236;DHT22;35067;48.134;8.378;2023-05-02T05:46:08;8.30;99.90
49236;DHT22;35067;48.134;8.378;2023-05-02T05:47:09;8.40;99.90
49236;DHT22;35067;48.134;8.378;2023-05-02T05:48:11;8.40;99.90
49236;DHT22;35067;48.134;8.378;2023-05-02T05:49:11;8.60;99.90
49236;DHT22;35067;48.134;8.378;2023-05-02T05:50:12;8.60;99.90
49236;DHT22;35067;48.134;8.378;2023-05-02T05:51:13;8.60;99.90
49236;DHT22;35067;48.134;8.378;2023-05-02T05:52:14;8.80;99.90
49236;DHT22;35067;48.134;8.378;2023-05-02T05:53:15;8.80;99.90
49236;DHT22;35067;48.134;8.378;2023-05-02T05:54:16;8.70;99.90
49236;DHT22;35067;48.134;8.378;2023-05-02T05:55:17;8.80;99.90
49236;DHT22;35067;48.134;8.378;2023-05-02T05:56:18;8.90;99.90
49236;DHT22;35067;48.134;8.378;2023-05-02T05:57:19;9.00;99.90
49236;DHT22;35067;48.134;8.378;2023-05-02T05:58:19;9.00;99.90
49236;DHT22;35067;48.134;8.378;2023-05-02T05:59:20;9.10;99.90
49236;DHT22;35067;48.134;8.378;2023-05-02T06:00:21;9.10;99.90
49236;DHT22;35067;48.134;8.378;2023-05-02T06:01:22;9.20;99.90
49236;DHT22;35067;48.134;8.378;2023-05-02T06:02:22;9.20;99.90
49236;DHT22;35067;48.134;8.378;2023-05-02T06:03:23;9.30;99.90
49236;DHT22;35067;48.134;8.378;2023-05-02T06:04:24;9.40;99.90
49236;DHT22;35067;48.134;8.378;2023-05-02T06:05:25;9.50;99.90
49236;DHT22;35067;48.134;8.378;2023-05-02T06:06:26;9.50;99.90
49236;DHT22;35067;48.134;8.378;2023-05-02T06:07:27;9.50;99.90
49236;DHT22;35067;48.134;8.378;2023-05-02T06:08:28;9.60;99.90
49236;DHT22;35067;48.134;8.378;2023-05-02T06:09:30;9.60;99.90
49236;DHT22;35067;48.134;8.378;2023-05-02T06:10:31;9.60;99.90
49236;DHT22;35067;48.134;8.378;2023-05-02T06:11:32;9.50;99.90
49236;DHT22;35067;48.134;8.378;2023-05-02T06:12:33;9.50;99.90
49236;DHT22;35067;48.134;8.378;2023-05-02T06:13:33;9.40;99.90
49236;DHT22;35067;48.134;8.378;2023-05-02T06:14:34;9.40;99.90
49236;DHT22;35067;48.134;8.378;2023-05-02T06:15:35;9.50;99.90
49236;DHT22;35067;48.134;8.378;2023-05-02T06:16:37;9.50;99.90
49236;DHT22;35067;48.134;8.378;2023-05-02T06:17:37;9.60;99.90
49236;DHT22;35067;48.134;8.378;2023-05-02T06:18:40;9.70;99.90
49236;DHT22;35067;48.134;8.378;2023-05-02T06:19:42;9.90;99.90
49236;DHT22;35067;48.134;8.378;2023-05-02T06:20:43;9.90;99.90
49236;DHT22;35067;48.134;8.378;2023-05-02T06:21:44;9.90;99.90
49236;DHT22;35067;48.134;8.378;2023-05-02T06:22:44;10.00;99.90
49236;DHT22;35067;48.134;8.378;2023-05-02T06:23:46;10.10;99.90
49236;DHT22;35067;48.134;8.378;2023-05-02T06:24:48;10.10;99.90
49236;DHT22;35067;48.134;8.378;2023-05-02T06:25:49;10.10;99.90
49236;DHT22;35067;48.134;8.378;2023-05-02T06:26:51;9.90;99.90
49236;DHT22;35067;48.134;8.378;2023-05-02T06:27:52;9.90;99.90
49236;DHT22;35067;48.134;8.378;2023-05-02T06:28:54;9.80;99.90
49236;DHT22;35067;48.134;8.378;2023-05-02T06:29:55;9.80;99.90
49236;DHT22;35067;48.134;8.378;2023-05-02T06:31:03;9.80;99.90
49236;DHT22;35067;48.134;8.378;2023-05-02T06:32:05;9.90;99.90
49236;DHT22;35067;48.134;8.378;2023-05-02T06:33:05;10.00;99.90
49236;DHT22;35067;48.134;8.378;2023-05-02T06:34:08;10.10;99.90
49236;DHT22;35067;48.134;8.378;2023-05-02T06:35:09;10.10;99.90
49236;DHT22;35067;48.134;8.378;2023-05-02T06:36:11;10.20;99.90
49236;DHT22;35067;48.134;8.378;2023-05-02T06:37:12;10.10;99.90
49236;DHT22;35067;48.134;8.378;2023-05-02T06:38:13;10.10;99.90
49236;DHT22;35067;48.134;8.378;2023-05-02T06:39:13;10.10;99.90
49236;DHT22;35067;48.134;8.378;2023-05-02T06:40:16;10.10;99.90
49236;DHT22;35067;48.134;8.378;2023-05-02T06:41:16;10.10;99.90
49236;DHT22;35067;48.134;8.378;2023-05-02T06:42:19;10.20;99.90
49236;DHT22;35067;48.134;8.378;2023-05-02T06:43:20;10.20;99.90
49236;DHT22;35067;48.134;8.378;2023-05-02T06:44:22;10.20;99.90
49236;DHT22;35067;48.134;8.378;2023-05-02T06:45:23;10.20;99.90
49236;DHT22;35067;48.134;8.378;2023-05-02T06:46:27;10.20;99.90
49236;DHT22;35067;48.134;8.378;2023-05-02T06:47:30;10.30;99.90
49236;DHT22;35067;48.134;8.378;2023-05-02T06:48:32;10.40;99.90
49236;DHT22;35067;48.134;8.378;2023-05-02T06:49:32;10.40;99.90
49236;DHT22;35067;48.134;8.378;2023-05-02T06:50:33;10.40;99.90
49236;DHT22;35067;48.134;8.378;2023-05-02T06:51:35;10.50;99.90
49236;DHT22;35067;48.134;8.378;2023-05-02T06:52:35;10.60;99.90
49236;DHT22;35067;48.134;8.378;2023-05-02T06:53:36;10.60;99.90
49236;DHT22;35067;48.134;8.378;2023-05-02T06:54:37;10.70;99.90
49236;DHT22;35067;48.134;8.378;2023-05-02T06:55:38;10.90;99.90
49236;DHT22;35067;48.134;8.378;2023-05-02T06:56:40;11.00;99.90
49236;DHT22;35067;48.134;8.378;2023-05-02T06:57:41;11.10;99.90
49236;DHT22;35067;48.134;8.378;2023-05-02T06:58:41;11.10;99.90
49236;DHT22;35067;48.134;8.378;2023-05-02T06:59:42;11.10;99.90
49236;DHT22;35067;48.134;8.378;2023-05-02T07:00:43;11.10;99.90
49236;DHT22;35067;48.134;8.378;2023-05-02T07:01:44;11.10;99.90
49236;DHT22;35067;48.134;8.378;2023-05-02T07:02:46;11.20;99.90
49236;DHT22;35067;48.134;8.378;2023-05-02T07:03:47;11.30;99.90
49236;DHT22;35067;48.134;8.378;2023-05-02T07:04:50;11.40;99.90
49236;DHT22;35067;48.134;8.378;2023-05-02T07:05:52;11.40;99.90